Portada
METAR-TAF:

METAR-TAF

Aeroports :

Txità, Rússia

latitud: 52-05N, longitud: 113-29E, altitud: 685 m

Observació

L'informe es va fer fa 41 minuts, a les 01:30 UTC
Vent 6 kt del Sud
Temperatura -9°C
Humitat 79%
Pressió 1018 hPa
Visibilitat 10 km o més

METAR: UIAA 130130Z 19003MPS 9999 NSC M09/M12 Q1018 R29/450150 NOSIG RMK QFE705/0940

Hora: 11:11 (02:11 UTC)

Pronòstic

L'informe es va fer fa 3 hores i 11 minuts, a les 23:00 UTC
Pronòstic vàlid del 13 a les 00 UTC al 13 a les 24 UTC
Vent 6 kt del Sud-Oest amb ràfegues de 16 kt
Visibilitat 10 km o més

TAF: UIAA 122300Z 1300/1324 23003G08MPS 9999 NSC

Observacions i pronòstics meteorològics de més de 4000 aeroports (METAR i TAF).

Les estacions disponibles són els punts grocs i vermells al mapa.

Posi el ratolí al punt desitjat per veure el nom de l'estació.

Feu clic per veure les observacions i els pronòstics meteorològics.

Per canviar el mapa: feu clic els botons verds amb una creu de color negre per apropar; al botó verd amb un guió per allunyar la imatge; o en les fletxes verdes per a mapes adjacents.


METAR-TAF: